sensor_id;sensor_type;location;lat;lon;timestamp;P1;durP1;ratioP1;P2;durP2;ratioP2
55545;SDS011;44768;50.298;127.520;2022-11-23T00:04:53;54.13;;;20.67;;
55545;SDS011;44768;50.298;127.520;2022-11-23T00:09:54;59.67;;;23.60;;
55545;SDS011;44768;50.298;127.520;2022-11-23T00:14:56;67.15;;;25.95;;
55545;SDS011;44768;50.298;127.520;2022-11-23T00:24:58;56.33;;;22.63;;
55545;SDS011;44768;50.298;127.520;2022-11-23T00:29:59;79.93;;;25.80;;
55545;SDS011;44768;50.298;127.520;2022-11-23T00:35:01;89.37;;;31.30;;
55545;SDS011;44768;50.298;127.520;2022-11-23T00:40:04;100.67;;;40.07;;
55545;SDS011;44768;50.298;127.520;2022-11-23T00:45:05;97.23;;;38.87;;
55545;SDS011;44768;50.298;127.520;2022-11-23T00:55:07;108.03;;;44.13;;
55545;SDS011;44768;50.298;127.520;2022-11-23T01:05:12;110.93;;;44.23;;
55545;SDS011;44768;50.298;127.520;2022-11-23T01:10:13;125.07;;;52.15;;
55545;SDS011;44768;50.298;127.520;2022-11-23T01:15:14;146.13;;;61.22;;
55545;SDS011;44768;50.298;127.520;2022-11-23T01:20:15;151.83;;;64.23;;
55545;SDS011;44768;50.298;127.520;2022-11-23T01:25:17;148.43;;;64.10;;
55545;SDS011;44768;50.298;127.520;2022-11-23T01:30:18;144.82;;;61.58;;
55545;SDS011;44768;50.298;127.520;2022-11-23T01:35:19;122.88;;;48.75;;
55545;SDS011;44768;50.298;127.520;2022-11-23T01:40:21;84.83;;;34.27;;
55545;SDS011;44768;50.298;127.520;2022-11-23T01:50:29;15.63;;;7.30;;
55545;SDS011;44768;50.298;127.520;2022-11-23T01:55:30;16.48;;;6.68;;
55545;SDS011;44768;50.298;127.520;2022-11-23T02:00:32;10.95;;;6.03;;
55545;SDS011;44768;50.298;127.520;2022-11-23T02:05:36;10.47;;;5.03;;
55545;SDS011;44768;50.298;127.520;2022-11-23T02:10:40;10.73;;;5.73;;
55545;SDS011;44768;50.298;127.520;2022-11-23T02:15:41;8.77;;;5.05;;
55545;SDS011;44768;50.298;127.520;2022-11-23T02:20:42;11.80;;;5.18;;
55545;SDS011;44768;50.298;127.520;2022-11-23T02:30:46;7.47;;;3.95;;
55545;SDS011;44768;50.298;127.520;2022-11-23T02:35:49;7.80;;;4.23;;
55545;SDS011;44768;50.298;127.520;2022-11-23T02:40:51;7.73;;;4.10;;
55545;SDS011;44768;50.298;127.520;2022-11-23T02:45:53;4.25;;;2.40;;
55545;SDS011;44768;50.298;127.520;2022-11-23T02:50:56;5.73;;;2.67;;
55545;SDS011;44768;50.298;127.520;2022-11-23T02:55:57;5.95;;;2.90;;
55545;SDS011;44768;50.298;127.520;2022-11-23T03:00:58;5.68;;;2.63;;
55545;SDS011;44768;50.298;127.520;2022-11-23T03:11:00;3.97;;;2.17;;
55545;SDS011;44768;50.298;127.520;2022-11-23T03:16:02;5.63;;;2.58;;
55545;SDS011;44768;50.298;127.520;2022-11-23T03:21:04;4.45;;;2.55;;
55545;SDS011;44768;50.298;127.520;2022-11-23T03:26:06;3.53;;;2.57;;
55545;SDS011;44768;50.298;127.520;2022-11-23T03:36:08;5.10;;;2.23;;
55545;SDS011;44768;50.298;127.520;2022-11-23T03:46:11;10.03;;;3.57;;
55545;SDS011;44768;50.298;127.520;2022-11-23T03:51:12;6.05;;;3.00;;
55545;SDS011;44768;50.298;127.520;2022-11-23T03:56:13;4.53;;;2.80;;
55545;SDS011;44768;50.298;127.520;2022-11-23T04:01:14;3.88;;;2.38;;
55545;SDS011;44768;50.298;127.520;2022-11-23T04:11:28;4.40;;;2.40;;
55545;SDS011;44768;50.298;127.520;2022-11-23T04:16:30;4.63;;;2.90;;
55545;SDS011;44768;50.298;127.520;2022-11-23T04:26:33;5.77;;;2.63;;
55545;SDS011;44768;50.298;127.520;2022-11-23T04:31:34;9.37;;;2.50;;
55545;SDS011;44768;50.298;127.520;2022-11-23T04:36:36;4.38;;;2.55;;
55545;SDS011;44768;50.298;127.520;2022-11-23T04:41:41;6.80;;;2.33;;
55545;SDS011;44768;50.298;127.520;2022-11-23T04:46:53;9.23;;;2.90;;
55545;SDS011;44768;50.298;127.520;2022-11-23T04:51:57;4.43;;;2.40;;
55545;SDS011;44768;50.298;127.520;2022-11-23T04:57:05;10.93;;;3.43;;
55545;SDS011;44768;50.298;127.520;2022-11-23T05:02:07;11.37;;;4.07;;
55545;SDS011;44768;50.298;127.520;2022-11-23T05:07:09;11.50;;;4.00;;
55545;SDS011;44768;50.298;127.520;2022-11-23T05:12:13;5.57;;;3.10;;
55545;SDS011;44768;50.298;127.520;2022-11-23T05:17:38;9.67;;;3.73;;
55545;SDS011;44768;50.298;127.520;2022-11-23T05:22:43;4.25;;;2.47;;
55545;SDS011;44768;50.298;127.520;2022-11-23T05:27:57;6.37;;;2.83;;
55545;SDS011;44768;50.298;127.520;2022-11-23T05:33:23;4.97;;;2.13;;
55545;SDS011;44768;50.298;127.520;2022-11-23T05:38:36;8.07;;;3.10;;
55545;SDS011;44768;50.298;127.520;2022-11-23T05:43:37;6.97;;;2.75;;
55545;SDS011;44768;50.298;127.520;2022-11-23T05:48:38;4.63;;;2.72;;
55545;SDS011;44768;50.298;127.520;2022-11-23T05:53:40;3.85;;;2.17;;
55545;SDS011;44768;50.298;127.520;2022-11-23T05:58:44;4.45;;;2.47;;
55545;SDS011;44768;50.298;127.520;2022-11-23T06:03:45;6.27;;;2.90;;
55545;SDS011;44768;50.298;127.520;2022-11-23T06:13:48;5.60;;;3.47;;
55545;SDS011;44768;50.298;127.520;2022-11-23T06:18:49;4.43;;;2.90;;
55545;SDS011;44768;50.298;127.520;2022-11-23T06:23:50;3.38;;;1.95;;
55545;SDS011;44768;50.298;127.520;2022-11-23T06:28:52;8.77;;;3.33;;
55545;SDS011;44768;50.298;127.520;2022-11-23T06:33:53;12.37;;;3.50;;
55545;SDS011;44768;50.298;127.520;2022-11-23T06:38:55;8.82;;;3.35;;
55545;SDS011;44768;50.298;127.520;2022-11-23T06:43:56;9.18;;;3.33;;
55545;SDS011;44768;50.298;127.520;2022-11-23T06:48:57;12.57;;;3.53;;
55545;SDS011;44768;50.298;127.520;2022-11-23T06:53:59;16.67;;;4.40;;
55545;SDS011;44768;50.298;127.520;2022-11-23T06:59:00;6.78;;;3.60;;
55545;SDS011;44768;50.298;127.520;2022-11-23T07:04:01;6.95;;;4.00;;
55545;SDS011;44768;50.298;127.520;2022-11-23T07:09:02;9.85;;;4.60;;
55545;SDS011;44768;50.298;127.520;2022-11-23T07:19:05;11.67;;;4.70;;
55545;SDS011;44768;50.298;127.520;2022-11-23T07:24:06;20.75;;;6.55;;
55545;SDS011;44768;50.298;127.520;2022-11-23T07:29:08;23.40;;;5.85;;
55545;SDS011;44768;50.298;127.520;2022-11-23T07:34:10;17.90;;;6.77;;
55545;SDS011;44768;50.298;127.520;2022-11-23T07:39:11;23.38;;;6.78;;
55545;SDS011;44768;50.298;127.520;2022-11-23T07:44:13;15.53;;;6.00;;
55545;SDS011;44768;50.298;127.520;2022-11-23T07:54:24;23.43;;;7.53;;
55545;SDS011;44768;50.298;127.520;2022-11-23T07:59:25;19.92;;;7.93;;
55545;SDS011;44768;50.298;127.520;2022-11-23T08:04:26;18.67;;;8.07;;
55545;SDS011;44768;50.298;127.520;2022-11-23T08:09:29;45.03;;;11.20;;
55545;SDS011;44768;50.298;127.520;2022-11-23T08:14:30;41.97;;;10.93;;
55545;SDS011;44768;50.298;127.520;2022-11-23T08:19:31;54.53;;;12.98;;
55545;SDS011;44768;50.298;127.520;2022-11-23T08:24:33;36.55;;;12.05;;
55545;SDS011;44768;50.298;127.520;2022-11-23T08:29:34;39.05;;;13.27;;
55545;SDS011;44768;50.298;127.520;2022-11-23T08:34:36;51.80;;;14.67;;
55545;SDS011;44768;50.298;127.520;2022-11-23T08:39:37;66.57;;;20.30;;
55545;SDS011;44768;50.298;127.520;2022-11-23T08:44:38;57.28;;;18.98;;
55545;SDS011;44768;50.298;127.520;2022-11-23T08:49:40;52.27;;;18.87;;
55545;SDS011;44768;50.298;127.520;2022-11-23T08:54:41;41.13;;;15.00;;
55545;SDS011;44768;50.298;127.520;2022-11-23T08:59:42;42.22;;;17.55;;
55545;SDS011;44768;50.298;127.520;2022-11-23T09:04:44;43.13;;;19.20;;
55545;SDS011;44768;50.298;127.520;2022-11-23T09:14:46;49.90;;;18.53;;
55545;SDS011;44768;50.298;127.520;2022-11-23T09:24:49;48.90;;;18.67;;
55545;SDS011;44768;50.298;127.520;2022-11-23T09:29:51;81.75;;;32.20;;
55545;SDS011;44768;50.298;127.520;2022-11-23T09:34:52;86.37;;;33.73;;
55545;SDS011;44768;50.298;127.520;2022-11-23T09:39:53;100.63;;;38.72;;
55545;SDS011;44768;50.298;127.520;2022-11-23T09:55:08;110.80;;;40.67;;
55545;SDS011;44768;50.298;127.520;2022-11-23T10:00:20;118.00;;;47.47;;
55545;SDS011;44768;50.298;127.520;2022-11-23T10:05:22;143.93;;;48.73;;
55545;SDS011;44768;50.298;127.520;2022-11-23T10:15:32;94.10;;;36.00;;
55545;SDS011;44768;50.298;127.520;2022-11-23T10:25:44;113.80;;;37.73;;
55545;SDS011;44768;50.298;127.520;2022-11-23T10:36:02;117.97;;;42.73;;
55545;SDS011;44768;50.298;127.520;2022-11-23T10:56:29;191.70;;;64.37;;
55545;SDS011;44768;50.298;127.520;2022-11-23T11:01:30;200.70;;;73.73;;
55545;SDS011;44768;50.298;127.520;2022-11-23T11:06:32;185.25;;;65.88;;
55545;SDS011;44768;50.298;127.520;2022-11-23T11:11:38;176.53;;;66.47;;
55545;SDS011;44768;50.298;127.520;2022-11-23T11:16:46;185.33;;;67.37;;
55545;SDS011;44768;50.298;127.520;2022-11-23T11:21:47;181.47;;;70.33;;
55545;SDS011;44768;50.298;127.520;2022-11-23T11:31:53;167.90;;;63.53;;
55545;SDS011;44768;50.298;127.520;2022-11-23T11:42:13;174.63;;;66.00;;
55545;SDS011;44768;50.298;127.520;2022-11-23T11:52:37;191.80;;;70.50;;
55545;SDS011;44768;50.298;127.520;2022-11-23T11:57:44;182.07;;;66.57;;
55545;SDS011;44768;50.298;127.520;2022-11-23T12:03:03;137.80;;;48.93;;
55545;SDS011;44768;50.298;127.520;2022-11-23T12:08:12;173.20;;;59.13;;
55545;SDS011;44768;50.298;127.520;2022-11-23T12:13:18;215.30;;;73.90;;
55545;SDS011;44768;50.298;127.520;2022-11-23T12:18:24;200.53;;;69.03;;
55545;SDS011;44768;50.298;127.520;2022-11-23T12:23:41;210.83;;;73.37;;
55545;SDS011;44768;50.298;127.520;2022-11-23T12:38:55;160.40;;;56.93;;
55545;SDS011;44768;50.298;127.520;2022-11-23T12:59:37;121.23;;;45.63;;
55545;SDS011;44768;50.298;127.520;2022-11-23T13:25:34;119.27;;;40.50;;
55545;SDS011;44768;50.298;127.520;2022-11-23T13:40:44;105.67;;;37.90;;
55545;SDS011;44768;50.298;127.520;2022-11-23T13:51:06;125.40;;;43.43;;
55545;SDS011;44768;50.298;127.520;2022-11-23T14:06:52;109.30;;;37.80;;
55545;SDS011;44768;50.298;127.520;2022-11-23T14:27:39;137.83;;;46.77;;
55545;SDS011;44768;50.298;127.520;2022-11-23T14:37:58;141.40;;;47.07;;
55545;SDS011;44768;50.298;127.520;2022-11-23T14:53:23;143.63;;;44.90;;
55545;SDS011;44768;50.298;127.520;2022-11-23T14:58:27;136.50;;;46.27;;
55545;SDS011;44768;50.298;127.520;2022-11-23T15:03:31;125.67;;;43.97;;
55545;SDS011;44768;50.298;127.520;2022-11-23T15:24:37;166.40;;;50.83;;
55545;SDS011;44768;50.298;127.520;2022-11-23T15:34:39;173.30;;;48.33;;
55545;SDS011;44768;50.298;127.520;2022-11-23T15:44:42;140.43;;;37.90;;
55545;SDS011;44768;50.298;127.520;2022-11-23T15:49:43;121.63;;;37.87;;
55545;SDS011;44768;50.298;127.520;2022-11-23T15:54:46;134.93;;;40.67;;
55545;SDS011;44768;50.298;127.520;2022-11-23T16:04:51;99.13;;;30.83;;
55545;SDS011;44768;50.298;127.520;2022-11-23T16:20:26;109.30;;;33.23;;
55545;SDS011;44768;50.298;127.520;2022-11-23T16:25:28;96.77;;;32.13;;
55545;SDS011;44768;50.298;127.520;2022-11-23T16:30:35;101.97;;;30.17;;
55545;SDS011;44768;50.298;127.520;2022-11-23T16:35:37;102.73;;;30.93;;
55545;SDS011;44768;50.298;127.520;2022-11-23T16:45:41;74.87;;;22.13;;
55545;SDS011;44768;50.298;127.520;2022-11-23T16:50:43;71.30;;;23.63;;
55545;SDS011;44768;50.298;127.520;2022-11-23T17:00:45;71.37;;;20.90;;
55545;SDS011;44768;50.298;127.520;2022-11-23T17:05:48;77.57;;;23.47;;
55545;SDS011;44768;50.298;127.520;2022-11-23T17:10:50;69.57;;;22.47;;
55545;SDS011;44768;50.298;127.520;2022-11-23T17:15:51;71.20;;;22.07;;
55545;SDS011;44768;50.298;127.520;2022-11-23T17:20:53;64.07;;;19.60;;
55545;SDS011;44768;50.298;127.520;2022-11-23T17:25:55;60.87;;;18.47;;
55545;SDS011;44768;50.298;127.520;2022-11-23T17:35:57;75.37;;;19.20;;
55545;SDS011;44768;50.298;127.520;2022-11-23T17:40:59;62.93;;;20.27;;
55545;SDS011;44768;50.298;127.520;2022-11-23T17:51:01;73.80;;;21.97;;
55545;SDS011;44768;50.298;127.520;2022-11-23T17:56:03;87.03;;;25.03;;
55545;SDS011;44768;50.298;127.520;2022-11-23T18:01:04;82.30;;;23.90;;
55545;SDS011;44768;50.298;127.520;2022-11-23T18:06:05;98.13;;;25.47;;
55545;SDS011;44768;50.298;127.520;2022-11-23T18:11:06;89.20;;;26.40;;
55545;SDS011;44768;50.298;127.520;2022-11-23T18:16:09;69.03;;;22.53;;
55545;SDS011;44768;50.298;127.520;2022-11-23T18:21:11;69.60;;;23.27;;
55545;SDS011;44768;50.298;127.520;2022-11-23T18:26:20;65.10;;;20.40;;
55545;SDS011;44768;50.298;127.520;2022-11-23T18:31:22;49.17;;;16.17;;
55545;SDS011;44768;50.298;127.520;2022-11-23T18:36:23;62.47;;;17.03;;
55545;SDS011;44768;50.298;127.520;2022-11-23T18:46:25;43.50;;;14.20;;
55545;SDS011;44768;50.298;127.520;2022-11-23T18:51:29;43.43;;;14.30;;
55545;SDS011;44768;50.298;127.520;2022-11-23T18:56:30;52.53;;;15.60;;
55545;SDS011;44768;50.298;127.520;2022-11-23T19:01:31;37.93;;;12.60;;
55545;SDS011;44768;50.298;127.520;2022-11-23T19:11:33;24.47;;;8.70;;
55545;SDS011;44768;50.298;127.520;2022-11-23T19:16:35;32.50;;;9.17;;
55545;SDS011;44768;50.298;127.520;2022-11-23T19:21:37;26.77;;;9.00;;
55545;SDS011;44768;50.298;127.520;2022-11-23T19:26:38;35.37;;;9.80;;
55545;SDS011;44768;50.298;127.520;2022-11-23T19:31:39;24.47;;;8.97;;
55545;SDS011;44768;50.298;127.520;2022-11-23T19:36:40;39.57;;;12.63;;
55545;SDS011;44768;50.298;127.520;2022-11-23T19:41:42;37.07;;;12.37;;
55545;SDS011;44768;50.298;127.520;2022-11-23T19:46:43;36.53;;;11.83;;
55545;SDS011;44768;50.298;127.520;2022-11-23T19:51:44;44.60;;;12.67;;
55545;SDS011;44768;50.298;127.520;2022-11-23T19:56:50;39.10;;;12.73;;
55545;SDS011;44768;50.298;127.520;2022-11-23T20:01:51;40.47;;;13.03;;
55545;SDS011;44768;50.298;127.520;2022-11-23T20:06:52;33.37;;;11.33;;
55545;SDS011;44768;50.298;127.520;2022-11-23T20:11:53;39.30;;;10.57;;
55545;SDS011;44768;50.298;127.520;2022-11-23T20:16:55;37.80;;;12.60;;
55545;SDS011;44768;50.298;127.520;2022-11-23T20:21:57;29.13;;;11.67;;
55545;SDS011;44768;50.298;127.520;2022-11-23T20:26:58;29.43;;;9.10;;
55545;SDS011;44768;50.298;127.520;2022-11-23T20:31:59;23.90;;;9.00;;
55545;SDS011;44768;50.298;127.520;2022-11-23T20:37:00;20.80;;;8.53;;
55545;SDS011;44768;50.298;127.520;2022-11-23T20:42:01;35.70;;;9.70;;
55545;SDS011;44768;50.298;127.520;2022-11-23T20:47:02;24.93;;;8.80;;
55545;SDS011;44768;50.298;127.520;2022-11-23T20:52:04;29.53;;;9.70;;
55545;SDS011;44768;50.298;127.520;2022-11-23T20:57:05;24.20;;;8.23;;
55545;SDS011;44768;50.298;127.520;2022-11-23T21:02:09;23.63;;;9.30;;
55545;SDS011;44768;50.298;127.520;2022-11-23T21:07:10;18.00;;;7.67;;
55545;SDS011;44768;50.298;127.520;2022-11-23T21:12:12;20.87;;;8.97;;
55545;SDS011;44768;50.298;127.520;2022-11-23T21:17:32;14.10;;;6.20;;
55545;SDS011;44768;50.298;127.520;2022-11-23T21:22:34;18.90;;;7.17;;
55545;SDS011;44768;50.298;127.520;2022-11-23T21:27:35;20.50;;;8.70;;
55545;SDS011;44768;50.298;127.520;2022-11-23T21:32:37;20.80;;;7.67;;
55545;SDS011;44768;50.298;127.520;2022-11-23T21:37:38;17.73;;;7.33;;
55545;SDS011;44768;50.298;127.520;2022-11-23T21:42:39;20.07;;;7.50;;
55545;SDS011;44768;50.298;127.520;2022-11-23T21:47:40;21.33;;;7.67;;
55545;SDS011;44768;50.298;127.520;2022-11-23T21:52:42;25.37;;;8.00;;
55545;SDS011;44768;50.298;127.520;2022-11-23T21:57:43;23.53;;;8.10;;
55545;SDS011;44768;50.298;127.520;2022-11-23T22:02:45;26.67;;;9.77;;
55545;SDS011;44768;50.298;127.520;2022-11-23T22:07:46;26.70;;;9.90;;
55545;SDS011;44768;50.298;127.520;2022-11-23T22:12:47;31.67;;;11.00;;
55545;SDS011;44768;50.298;127.520;2022-11-23T22:17:49;34.20;;;15.00;;
55545;SDS011;44768;50.298;127.520;2022-11-23T22:22:50;30.50;;;11.57;;
55545;SDS011;44768;50.298;127.520;2022-11-23T22:27:51;60.83;;;19.37;;
55545;SDS011;44768;50.298;127.520;2022-11-23T22:32:53;43.13;;;17.53;;
55545;SDS011;44768;50.298;127.520;2022-11-23T22:37:54;39.33;;;14.13;;
55545;SDS011;44768;50.298;127.520;2022-11-23T22:42:56;44.43;;;15.87;;
55545;SDS011;44768;50.298;127.520;2022-11-23T22:47:57;45.20;;;15.03;;
55545;SDS011;44768;50.298;127.520;2022-11-23T22:52:59;40.87;;;15.93;;
55545;SDS011;44768;50.298;127.520;2022-11-23T22:58:00;42.90;;;15.47;;
55545;SDS011;44768;50.298;127.520;2022-11-23T23:03:01;47.23;;;16.63;;
55545;SDS011;44768;50.298;127.520;2022-11-23T23:08:02;54.33;;;20.07;;
55545;SDS011;44768;50.298;127.520;2022-11-23T23:13:03;61.70;;;24.60;;
55545;SDS011;44768;50.298;127.520;2022-11-23T23:18:05;37.67;;;15.93;;
55545;SDS011;44768;50.298;127.520;2022-11-23T23:23:07;34.53;;;14.27;;
55545;SDS011;44768;50.298;127.520;2022-11-23T23:28:08;41.20;;;15.30;;
55545;SDS011;44768;50.298;127.520;2022-11-23T23:33:09;37.33;;;12.40;;
55545;SDS011;44768;50.298;127.520;2022-11-23T23:38:12;36.63;;;13.67;;
55545;SDS011;44768;50.298;127.520;2022-11-23T23:43:14;53.37;;;18.83;;
55545;SDS011;44768;50.298;127.520;2022-11-23T23:48:15;104.27;;;27.63;;
55545;SDS011;44768;50.298;127.520;2022-11-23T23:53:16;132.90;;;39.67;;
55545;SDS011;44768;50.298;127.520;2022-11-23T23:58:18;162.97;;;46.70;;
